Time;durP1;ratioP1;P1;durP2;ratioP2;P2;SDS_P1;SDS_P2;PMS_P1;PMS_P2;Temp;Humidity;BMP_temperature;BMP_pressure;BME280_temperature;BME280_humidity;BME280_pressure;Samples;Min_cycle;Max_cycle;Signal;HPM_P1;HPM_P2
2023/08/03 00:02:12;;;;;;;8.38;1.75;;;16.90;99.90;;;;;;5092104;28;20071;-76
2023/08/03 00:04:58;;;;;;;7.25;1.70;;;16.90;99.90;;;;;;5082841;27;20104;-75
2023/08/03 00:07:47;;;;;;;4.40;1.52;;;16.90;99.90;;;;;;5089992;27;20038;-76
2023/08/03 00:10:35;;;;;;;7.40;1.85;;;16.90;99.90;;;;;;5084858;28;20031;-76
2023/08/03 00:13:21;;;;;;;6.07;1.60;;;16.90;99.90;;;;;;5063026;28;20105;-75
2023/08/03 00:16:07;;;;;;;5.78;2.03;;;16.90;99.90;;;;;;5093567;27;20096;-76
2023/08/03 00:18:53;;;;;;;4.07;1.70;;;16.90;99.90;;;;;;5101062;28;20464;-76
2023/08/03 00:21:39;;;;;;;9.57;1.80;;;16.90;99.90;;;;;;5083713;28;20054;-76
2023/08/03 00:24:25;;;;;;;5.95;1.60;;;16.90;99.90;;;;;;5096389;28;20086;-76
2023/08/03 00:27:10;;;;;;;9.18;1.50;;;16.90;99.90;;;;;;5106009;28;20100;-76
2023/08/03 00:29:56;;;;;;;6.82;1.30;;;16.90;99.90;;;;;;5081419;28;20051;-76
2023/08/03 00:32:42;;;;;;;6.10;1.45;;;16.90;99.90;;;;;;5088824;28;20039;-75
2023/08/03 00:35:28;;;;;;;7.45;1.60;;;16.90;99.90;;;;;;5095564;28;20043;-75
2023/08/03 00:38:14;;;;;;;4.50;1.65;;;16.90;99.90;;;;;;5076630;28;20052;-76
2023/08/03 00:41:00;;;;;;;4.35;1.35;;;16.90;99.90;;;;;;5092448;28;20463;-76
2023/08/03 00:43:46;;;;;;;6.05;1.63;;;16.90;99.90;;;;;;5068341;28;20061;-75
2023/08/03 00:46:32;;;;;;;6.88;1.30;;;16.90;99.90;;;;;;5077427;28;20028;-76
2023/08/03 00:49:18;;;;;;;9.00;1.80;;;16.80;99.90;;;;;;5102380;28;20047;-76
2023/08/03 00:52:04;;;;;;;6.80;1.70;;;16.80;99.90;;;;;;5077148;28;20462;-76
2023/08/03 00:54:51;;;;;;;7.53;1.65;;;16.90;99.90;;;;;;5077723;28;20047;-76
2023/08/03 00:57:36;;;;;;;4.00;1.15;;;16.90;99.90;;;;;;5072404;28;20040;-76
2023/08/03 01:00:22;;;;;;;8.63;1.45;;;16.90;99.90;;;;;;5105051;28;20479;-76
2023/08/03 01:03:08;;;;;;;5.82;1.30;;;16.90;99.90;;;;;;5071947;28;20044;-76
2023/08/03 01:05:54;;;;;;;7.93;1.45;;;16.80;99.90;;;;;;5085985;28;20832;-76
2023/08/03 01:08:40;;;;;;;6.20;1.23;;;16.80;99.90;;;;;;5123296;28;20047;-75
2023/08/03 01:11:29;;;;;;;8.50;1.40;;;16.70;99.90;;;;;;5102243;28;20039;-76
2023/08/03 01:14:15;;;;;;;6.72;1.75;;;16.70;99.90;;;;;;5089260;28;20055;-75
2023/08/03 01:17:01;;;;;;;10.70;2.08;;;16.70;99.90;;;;;;5095107;28;20035;-75
2023/08/03 01:19:49;;;;;;;5.45;1.55;;;16.70;99.90;;;;;;5065578;28;20051;-75
2023/08/03 01:22:42;;;;;;;4.82;1.35;;;16.60;99.90;;;;;;5102523;28;20500;-76
2023/08/03 01:25:28;;;;;;;6.97;1.65;;;16.60;99.90;;;;;;5074825;28;20071;-76
2023/08/03 01:28:13;;;;;;;7.53;1.35;;;16.60;99.90;;;;;;5089913;28;20039;-76
2023/08/03 01:30:59;;;;;;;7.05;1.50;;;16.60;99.90;;;;;;5072807;28;20385;-76
2023/08/03 01:33:45;;;;;;;8.65;1.40;;;16.50;99.90;;;;;;5060052;28;20045;-75
2023/08/03 01:36:31;;;;;;;5.13;1.30;;;16.50;99.90;;;;;;5073860;28;20036;-75
2023/08/03 01:39:18;;;;;;;11.43;1.70;;;16.50;99.90;;;;;;5045777;28;20080;-75
2023/08/03 01:42:04;;;;;;;9.00;1.48;;;16.40;99.90;;;;;;5091752;28;20070;-75
2023/08/03 01:44:50;;;;;;;5.32;1.13;;;16.50;99.90;;;;;;5109010;28;20063;-75
2023/08/03 01:47:36;;;;;;;4.97;1.60;;;16.40;99.90;;;;;;5086845;28;20109;-75
2023/08/03 01:50:22;;;;;;;6.80;1.75;;;16.40;99.90;;;;;;5093994;28;20083;-75
2023/08/03 01:53:08;;;;;;;6.13;1.40;;;16.50;99.90;;;;;;5063123;28;20067;-75
2023/08/03 01:55:54;;;;;;;6.65;1.65;;;16.40;99.90;;;;;;5058585;28;20123;-75
2023/08/03 01:58:39;;;;;;;8.55;1.60;;;16.50;99.90;;;;;;5107812;28;20059;-75
2023/08/03 02:01:25;;;;;;;7.43;1.40;;;16.50;99.90;;;;;;5074948;28;20043;-76
2023/08/03 02:04:14;;;;;;;6.43;1.50;;;16.50;99.90;;;;;;5068722;28;20050;-75
2023/08/03 02:07:09;;;;;;;9.05;1.80;;;16.50;99.90;;;;;;5045361;28;20039;-76
2023/08/03 02:09:55;;;;;;;6.07;1.70;;;16.50;99.90;;;;;;5078876;28;20190;-75
2023/08/03 02:12:41;;;;;;;6.50;1.60;;;16.50;99.90;;;;;;5089473;28;20039;-75
2023/08/03 02:15:27;;;;;;;8.05;1.50;;;16.50;99.90;;;;;;5102945;28;20044;-76
2023/08/03 02:18:13;;;;;;;11.40;2.00;;;16.50;99.90;;;;;;5080339;28;20100;-75
2023/08/03 02:20:58;;;;;;;9.95;2.13;;;16.50;99.90;;;;;;5080220;28;20055;-75
2023/08/03 02:23:44;;;;;;;6.63;2.05;;;16.60;99.90;;;;;;5079120;28;20453;-75
2023/08/03 02:26:30;;;;;;;12.10;2.03;;;16.60;99.90;;;;;;5072574;28;20101;-75
2023/08/03 02:29:16;;;;;;;8.38;1.60;;;16.60;99.90;;;;;;5081595;28;20070;-75
2023/08/03 02:32:02;;;;;;;9.20;1.55;;;16.60;99.90;;;;;;5082711;28;20039;-75
2023/08/03 02:34:48;;;;;;;10.57;1.75;;;16.70;99.90;;;;;;5085987;28;20036;-75
2023/08/03 02:37:34;;;;;;;7.18;1.30;;;16.60;99.90;;;;;;5072705;28;20047;-75
2023/08/03 02:40:20;;;;;;;7.47;1.50;;;16.70;99.90;;;;;;5058242;28;20040;-75
2023/08/03 02:43:06;;;;;;;7.53;1.55;;;16.70;99.90;;;;;;5069820;28;20052;-75
2023/08/03 02:45:53;;;;;;;8.05;1.80;;;16.70;99.90;;;;;;5074165;28;20039;-75
2023/08/03 02:48:39;;;;;;;6.50;1.52;;;16.70;99.90;;;;;;5071880;28;20043;-75
2023/08/03 02:51:25;;;;;;;11.07;2.47;;;16.70;99.90;;;;;;5098245;28;20039;-75
2023/08/03 02:54:11;;;;;;;8.98;1.67;;;16.70;99.90;;;;;;5058471;28;20076;-74
2023/08/03 02:56:57;;;;;;;9.55;2.13;;;16.70;99.90;;;;;;5086670;28;20040;-76
2023/08/03 02:59:43;;;;;;;6.95;1.67;;;16.70;99.90;;;;;;5096437;28;20395;-75
2023/08/03 03:02:29;;;;;;;8.93;1.50;;;16.70;99.90;;;;;;5097873;28;20177;-75
2023/08/03 03:05:15;;;;;;;7.05;2.10;;;16.80;99.90;;;;;;5096848;28;20126;-75
2023/08/03 03:08:01;;;;;;;6.15;1.23;;;16.80;99.90;;;;;;5071766;28;20036;-75
2023/08/03 03:10:47;;;;;;;11.25;2.20;;;16.80;99.90;;;;;;5082936;28;20134;-75
2023/08/03 03:13:33;;;;;;;8.35;1.30;;;16.80;99.90;;;;;;5080301;28;20112;-75
2023/08/03 03:16:25;;;;;;;5.38;1.17;;;16.80;99.90;;;;;;5098614;28;20103;-75
2023/08/03 03:19:12;;;;;;;3.60;1.17;;;16.90;99.90;;;;;;5068457;28;20142;-75
2023/08/03 03:21:58;;;;;;;4.30;1.17;;;16.90;99.90;;;;;;5041082;28;20055;-75
2023/08/03 03:24:44;;;;;;;7.38;1.60;;;16.90;99.90;;;;;;5070061;28;20039;-75
2023/08/03 03:27:30;;;;;;;8.93;1.30;;;16.90;99.90;;;;;;5043915;28;20036;-75
2023/08/03 03:30:16;;;;;;;6.35;1.52;;;16.90;99.90;;;;;;5034042;28;20044;-75
2023/08/03 03:33:03;;;;;;;5.05;1.20;;;16.80;99.90;;;;;;5080662;28;20504;-75
2023/08/03 03:35:49;;;;;;;3.95;1.08;;;16.80;99.90;;;;;;5071567;28;20791;-75
2023/08/03 03:38:36;;;;;;;8.20;2.47;;;16.80;99.90;;;;;;5083642;28;20055;-76
2023/08/03 03:41:22;;;;;;;6.68;1.38;;;16.80;99.90;;;;;;5034270;28;20082;-75
2023/08/03 03:44:08;;;;;;;5.00;1.13;;;16.80;99.90;;;;;;5067635;28;20046;-75
2023/08/03 03:46:54;;;;;;;7.97;1.90;;;16.70;99.90;;;;;;5079302;28;20057;-75
2023/08/03 03:49:40;;;;;;;5.85;1.15;;;16.70;99.90;;;;;;5074416;28;20036;-76
2023/08/03 03:52:26;;;;;;;6.25;1.27;;;16.70;99.90;;;;;;5075139;28;20039;-76
2023/08/03 03:55:12;;;;;;;5.07;1.40;;;16.70;99.90;;;;;;5056705;28;20109;-76
2023/08/03 03:57:59;;;;;;;10.07;1.40;;;16.70;99.90;;;;;;5070141;28;20043;-76
2023/08/03 04:00:45;;;;;;;6.25;1.30;;;16.70;99.90;;;;;;5044248;28;20774;-76
2023/08/03 04:03:31;;;;;;;6.60;1.38;;;16.80;99.90;;;;;;5043888;28;20044;-76
2023/08/03 04:06:17;;;;;;;6.68;1.42;;;16.80;99.90;;;;;;5089813;28;20077;-76
2023/08/03 04:09:03;;;;;;;7.95;1.33;;;16.80;99.90;;;;;;5078024;28;20696;-76
2023/08/03 04:11:49;;;;;;;7.88;1.80;;;16.80;99.90;;;;;;5063488;28;20186;-75
2023/08/03 04:14:35;;;;;;;7.97;1.40;;;16.80;99.90;;;;;;5073172;28;20127;-76
2023/08/03 04:17:21;;;;;;;6.20;1.30;;;16.80;99.90;;;;;;5073166;28;20064;-75
2023/08/03 04:20:08;;;;;;;4.05;1.00;;;16.80;99.90;;;;;;5083490;28;20040;-76
2023/08/03 04:22:53;;;;;;;5.80;1.25;;;16.80;99.90;;;;;;5074857;28;20048;-76
2023/08/03 04:25:39;;;;;;;5.38;1.20;;;16.90;99.90;;;;;;5062394;28;20038;-75
2023/08/03 04:28:27;;;;;;;4.63;1.25;;;16.90;99.90;;;;;;5043008;28;20044;-76
2023/08/03 04:31:13;;;;;;;5.40;1.10;;;16.90;99.90;;;;;;5053410;28;20499;-75
2023/08/03 04:33:59;;;;;;;3.50;0.93;;;16.90;99.90;;;;;;5062157;28;20123;-75
2023/08/03 04:36:47;;;;;;;7.60;1.17;;;17.00;99.90;;;;;;5058079;28;20047;-75
2023/08/03 04:39:33;;;;;;;5.40;1.08;;;17.00;99.90;;;;;;5056997;28;20036;-75
2023/08/03 04:42:19;;;;;;;5.43;1.02;;;17.00;99.90;;;;;;5052301;28;20135;-75
2023/08/03 04:45:05;;;;;;;6.25;1.20;;;17.00;99.90;;;;;;5057548;28;20046;-75
2023/08/03 04:47:51;;;;;;;7.30;1.20;;;17.00;99.90;;;;;;5058105;28;20044;-75
2023/08/03 04:50:37;;;;;;;4.13;1.40;;;17.00;99.90;;;;;;5072334;28;20043;-75
2023/08/03 04:53:24;;;;;;;5.35;1.45;;;16.90;99.90;;;;;;5048175;28;20036;-78
2023/08/03 04:56:10;;;;;;;7.00;1.80;;;17.00;99.90;;;;;;5056607;28;20036;-75
2023/08/03 04:58:57;;;;;;;5.95;1.63;;;17.00;99.90;;;;;;5046279;28;20048;-76
2023/08/03 05:01:43;;;;;;;4.17;1.37;;;17.00;99.90;;;;;;5062447;28;20047;-76
2023/08/03 05:04:29;;;;;;;3.85;1.42;;;16.90;99.90;;;;;;5047038;28;20369;-75
2023/08/03 05:07:15;;;;;;;4.88;1.30;;;16.90;99.90;;;;;;5044032;28;20128;-75
2023/08/03 05:10:01;;;;;;;4.30;1.25;;;16.90;99.90;;;;;;5090652;28;20072;-75
2023/08/03 05:12:48;;;;;;;3.95;1.30;;;16.90;99.90;;;;;;5059626;28;20040;-75
2023/08/03 05:15:34;;;;;;;5.90;1.70;;;16.90;99.90;;;;;;5054322;28;20071;-75
2023/08/03 05:18:20;;;;;;;10.18;1.50;;;16.80;99.90;;;;;;5061452;28;20123;-75
2023/08/03 05:21:06;;;;;;;4.38;1.63;;;16.80;99.90;;;;;;5101143;27;20039;-75
2023/08/03 05:23:52;;;;;;;5.32;1.77;;;16.90;99.90;;;;;;5094093;27;20828;-75
2023/08/03 05:26:38;;;;;;;5.10;1.38;;;16.90;99.90;;;;;;5106270;27;20039;-75
2023/08/03 05:29:25;;;;;;;5.80;1.38;;;16.90;99.90;;;;;;5064878;28;20032;-75
2023/08/03 05:32:11;;;;;;;5.82;1.60;;;16.90;99.90;;;;;;5073847;28;20097;-76
2023/08/03 05:34:59;;;;;;;4.38;1.30;;;17.00;99.90;;;;;;5086075;27;20200;-75
2023/08/03 05:37:45;;;;;;;6.72;1.50;;;17.00;99.90;;;;;;5093505;28;20049;-76
2023/08/03 05:40:31;;;;;;;6.28;1.40;;;17.00;99.90;;;;;;5085145;28;20039;-75
2023/08/03 05:43:17;;;;;;;7.45;1.42;;;17.00;99.90;;;;;;5076755;27;20108;-75
2023/08/03 05:46:04;;;;;;;3.25;1.42;;;17.00;99.90;;;;;;5048990;28;20036;-75
2023/08/03 05:48:52;;;;;;;6.97;1.30;;;17.00;99.90;;;;;;5115143;27;20411;-76
2023/08/03 05:51:39;;;;;;;3.97;1.30;;;17.00;99.90;;;;;;5072125;28;20040;-76
2023/08/03 05:54:25;;;;;;;3.55;1.02;;;17.10;99.90;;;;;;5079744;28;20048;-75
2023/08/03 05:57:12;;;;;;;4.55;1.23;;;17.00;99.90;;;;;;5120488;27;20050;-75
2023/08/03 05:59:58;;;;;;;5.05;1.20;;;17.10;99.90;;;;;;5099976;27;20123;-75
2023/08/03 06:02:44;;;;;;;2.88;1.20;;;17.00;99.90;;;;;;5073221;27;20035;-75
2023/08/03 06:05:43;;;;;;;3.80;1.15;;;17.10;99.90;;;;;;5105413;27;20060;-76
2023/08/03 06:08:29;;;;;;;6.45;1.55;;;17.10;99.90;;;;;;5102100;27;20525;-75
2023/08/03 06:11:17;;;;;;;3.40;1.20;;;17.10;99.90;;;;;;5084364;27;20086;-76
2023/08/03 06:14:07;;;;;;;5.05;1.55;;;17.10;99.90;;;;;;5102775;28;20045;-76
2023/08/03 06:16:56;;;;;;;4.05;1.00;;;17.10;99.90;;;;;;5052101;28;20088;-76
2023/08/03 06:19:43;;;;;;;4.75;1.25;;;17.10;99.90;;;;;;5072395;28;20100;-75
2023/08/03 06:22:29;;;;;;;5.43;1.77;;;17.10;99.90;;;;;;5064143;28;20506;-75
2023/08/03 06:25:15;;;;;;;8.40;1.30;;;17.20;99.90;;;;;;5071340;28;20043;-75
2023/08/03 06:28:01;;;;;;;3.42;1.00;;;17.20;99.90;;;;;;5096951;28;20031;-75
2023/08/03 06:30:48;;;;;;;2.63;0.90;;;17.20;99.90;;;;;;5085395;28;20595;-76
2023/08/03 06:33:34;;;;;;;4.22;1.15;;;17.20;99.90;;;;;;5057278;28;20071;-76
2023/08/03 06:36:23;;;;;;;5.13;1.10;;;17.30;99.90;;;;;;5045302;28;20119;-75
2023/08/03 06:39:09;;;;;;;4.15;1.10;;;17.30;99.90;;;;;;5057093;28;20044;-75
2023/08/03 06:41:55;;;;;;;4.00;1.10;;;17.40;99.90;;;;;;5076946;28;20039;-75
2023/08/03 06:44:41;;;;;;;4.80;1.10;;;17.50;99.90;;;;;;5077178;28;20670;-76
2023/08/03 06:47:29;;;;;;;9.35;2.03;;;17.70;99.90;;;;;;5058408;28;20040;-75
2023/08/03 06:50:15;;;;;;;5.40;1.00;;;17.80;99.90;;;;;;5057619;28;20042;-75
2023/08/03 06:53:02;;;;;;;4.00;1.00;;;17.80;99.90;;;;;;5066911;28;20283;-75
2023/08/03 06:55:48;;;;;;;6.20;1.10;;;17.90;99.90;;;;;;5094308;28;20035;-75
2023/08/03 06:58:34;;;;;;;4.38;0.98;;;17.90;99.90;;;;;;5060726;28;20048;-75
2023/08/03 07:01:20;;;;;;;3.78;0.90;;;17.90;99.90;;;;;;5070780;28;20050;-76
2023/08/03 07:04:06;;;;;;;3.70;0.90;;;18.00;99.90;;;;;;5066722;28;20046;-76
2023/08/03 07:06:52;;;;;;;4.03;1.20;;;18.00;99.90;;;;;;5050824;28;20044;-76
2023/08/03 07:09:38;;;;;;;2.97;0.80;;;18.00;99.90;;;;;;5088643;28;20372;-75
2023/08/03 07:12:26;;;;;;;3.28;0.95;;;18.00;99.90;;;;;;5090023;28;20031;-75
2023/08/03 07:15:12;;;;;;;3.22;0.88;;;18.00;99.90;;;;;;5056637;28;20043;-75
2023/08/03 07:17:58;;;;;;;2.42;0.55;;;18.10;99.90;;;;;;5091519;28;20530;-75
2023/08/03 07:20:44;;;;;;;4.38;1.20;;;18.10;99.90;;;;;;5080480;28;20047;-75
2023/08/03 07:23:30;;;;;;;3.40;0.90;;;18.00;99.90;;;;;;5057806;28;20041;-75
2023/08/03 07:26:16;;;;;;;2.55;0.75;;;18.10;99.90;;;;;;5074209;28;20051;-75
2023/08/03 07:29:02;;;;;;;2.75;0.80;;;18.10;99.90;;;;;;5064769;28;20097;-76
2023/08/03 07:31:49;;;;;;;4.38;1.00;;;18.10;99.90;;;;;;5062155;28;20154;-75
2023/08/03 07:34:36;;;;;;;6.45;0.90;;;18.20;99.90;;;;;;5085730;28;20036;-75
2023/08/03 07:37:22;;;;;;;3.20;1.23;;;18.20;99.90;;;;;;5055065;28;20371;-75
2023/08/03 07:40:08;;;;;;;3.67;0.50;;;18.20;99.90;;;;;;5096676;28;20116;-76
2023/08/03 07:42:54;;;;;;;2.35;0.60;;;18.20;99.90;;;;;;5076495;28;20126;-74
2023/08/03 07:45:42;;;;;;;1.50;0.52;;;18.30;99.90;;;;;;5069834;28;20747;-75
2023/08/03 07:48:27;;;;;;;1.08;0.45;;;18.20;99.90;;;;;;5088238;28;20098;-75
2023/08/03 07:51:14;;;;;;;3.08;0.90;;;18.30;99.90;;;;;;5070706;28;20054;-75
2023/08/03 07:54:00;;;;;;;1.13;0.70;;;18.30;99.90;;;;;;5054233;28;20032;-75
2023/08/03 07:56:46;;;;;;;2.70;1.13;;;18.30;99.90;;;;;;5078108;28;20039;-75
2023/08/03 07:59:32;;;;;;;3.83;1.40;;;18.30;99.90;;;;;;5085860;28;20074;-75
2023/08/03 08:02:18;;;;;;;4.18;1.15;;;18.40;99.90;;;;;;5051406;28;20773;-76
2023/08/03 08:05:05;;;;;;;4.40;1.13;;;18.40;99.90;;;;;;5082590;28;20043;-76
2023/08/03 08:07:53;;;;;;;2.10;0.95;;;18.40;99.90;;;;;;5091030;28;20040;-75
2023/08/03 08:10:39;;;;;;;;;;;18.40;99.90;;;;;;5065628;28;20040;-75
2023/08/03 08:13:25;;;;;;;2.45;1.17;;;18.40;99.90;;;;;;5086147;28;19911;-75
2023/08/03 08:16:13;;;;;;;5.32;1.58;;;18.30;99.90;;;;;;5091203;28;20047;-75
2023/08/03 08:18:59;;;;;;;2.95;1.45;;;18.30;99.90;;;;;;5093694;28;20137;-75
2023/08/03 08:21:45;;;;;;;5.00;1.67;;;18.30;99.90;;;;;;5068443;28;20043;-75
2023/08/03 08:24:31;;;;;;;5.00;1.90;;;18.30;99.90;;;;;;5042779;28;20556;-75
2023/08/03 08:27:17;;;;;;;4.53;1.92;;;18.40;99.90;;;;;;5071352;28;20067;-77
2023/08/03 08:30:05;;;;;;;3.75;1.67;;;18.40;99.90;;;;;;5057329;28;20138;-76
2023/08/03 08:32:52;;;;;;;4.43;1.55;;;18.40;99.90;;;;;;5074065;28;20035;-75
2023/08/03 08:35:38;;;;;;;4.05;2.10;;;18.30;99.90;;;;;;5057219;28;20380;-75
2023/08/03 08:38:24;;;;;;;3.63;1.20;;;18.30;99.90;;;;;;5072964;28;20043;-75
2023/08/03 08:41:10;;;;;;;4.35;1.20;;;18.30;99.90;;;;;;5070613;28;20040;-75
2023/08/03 08:43:56;;;;;;;2.72;1.00;;;18.30;99.90;;;;;;5061505;28;20060;-74
2023/08/03 08:46:43;;;;;;;3.42;1.23;;;18.30;99.90;;;;;;5062900;28;20037;-75
2023/08/03 08:49:29;;;;;;;4.07;1.42;;;18.40;99.90;;;;;;5083879;28;20046;-75
2023/08/03 08:52:15;;;;;;;3.97;1.52;;;18.50;99.90;;;;;;5066247;28;20039;-75
2023/08/03 08:55:28;;;;;;;2.65;1.10;;;18.60;99.90;;;;;;5074103;28;20460;-74
2023/08/03 08:58:14;;;;;;;2.28;1.00;;;18.60;99.90;;;;;;5074839;28;20031;-76
2023/08/03 09:01:04;;;;;;;2.50;0.60;;;18.70;99.90;;;;;;5071182;28;20047;-75
2023/08/03 09:03:55;;;;;;;6.38;0.90;;;18.70;99.90;;;;;;5066077;28;20127;-75
2023/08/03 09:06:44;;;;;;;2.20;0.80;;;18.80;99.90;;;;;;5051303;28;20066;-75
2023/08/03 09:09:34;;;;;;;1.55;0.60;;;18.80;99.90;;;;;;5083947;28;20114;-74
2023/08/03 09:12:27;;;;;;;2.75;0.80;;;18.80;99.90;;;;;;5065321;28;20048;-75
2023/08/03 09:15:14;;;;;;;3.22;0.60;;;18.80;99.90;;;;;;5061835;28;20040;-74
2023/08/03 09:18:04;;;;;;;0.60;0.50;;;18.80;99.90;;;;;;5072811;28;20359;-74
2023/08/03 09:20:50;;;;;;;1.55;0.55;;;18.80;99.90;;;;;;5063492;28;20072;-75
2023/08/03 09:23:39;;;;;;;2.95;0.60;;;18.80;99.90;;;;;;5059585;28;20044;-75
2023/08/03 09:26:25;;;;;;;1.20;0.60;;;18.90;99.90;;;;;;5102423;28;20036;-75
2023/08/03 09:29:13;;;;;;;5.13;0.70;;;18.90;99.90;;;;;;5094387;28;20097;-75
2023/08/03 09:32:06;;;;;;;0.75;0.40;;;18.90;99.90;;;;;;5089973;28;20476;-75
2023/08/03 09:34:52;;;;;;;1.63;0.50;;;19.00;99.90;;;;;;5079966;28;20051;-75
2023/08/03 09:37:38;;;;;;;0.82;0.40;;;19.00;99.90;;;;;;5078839;28;20040;-75
2023/08/03 09:40:26;;;;;;;0.38;0.30;;;19.00;99.90;;;;;;5092904;28;20074;-75
2023/08/03 09:43:12;;;;;;;2.15;0.60;;;19.00;99.90;;;;;;5060001;28;20041;-76
2023/08/03 09:45:58;;;;;;;0.70;0.52;;;18.90;99.90;;;;;;5084987;28;20032;-76
2023/08/03 09:48:44;;;;;;;1.02;0.50;;;18.60;99.90;;;;;;5096710;28;20047;-75
2023/08/03 09:51:31;;;;;;;3.13;0.70;;;18.30;99.90;;;;;;5090109;28;20380;-77
2023/08/03 09:54:39;;;;;;;2.00;0.85;;;18.10;99.90;;;;;;5054176;28;20039;-76
2023/08/03 09:57:29;;;;;;;2.97;1.63;;;18.10;99.90;;;;;;5059390;28;20652;-76
2023/08/03 10:00:17;;;;;;;1.02;0.50;;;18.00;99.90;;;;;;5061008;28;20042;-76
2023/08/03 10:03:12;;;;;;;2.25;0.60;;;18.00;99.90;;;;;;5063188;28;20098;-76
2023/08/03 10:06:17;;;;;;;1.52;0.65;;;18.00;99.90;;;;;;5064401;28;20036;-76
2023/08/03 10:09:04;;;;;;;1.00;0.47;;;17.90;99.90;;;;;;5046714;28;20033;-76
2023/08/03 10:11:52;;;;;;;1.48;0.50;;;17.80;99.90;;;;;;5085703;28;20055;-77
2023/08/03 10:14:41;;;;;;;;;;;17.60;99.90;;;;;;5084155;28;20089;-76
2023/08/03 10:17:28;;;;;;;2.60;0.80;;;17.50;99.90;;;;;;5064405;28;20010;-77
2023/08/03 10:20:13;;;;;;;1.23;0.73;;;17.50;99.90;;;;;;5070852;28;20486;-76
2023/08/03 10:23:15;;;;;;;1.48;0.70;;;17.40;99.90;;;;;;5077217;28;20048;-77
2023/08/03 10:26:03;;;;;;;1.83;0.75;;;17.30;99.90;;;;;;5089711;28;20039;-76
2023/08/03 10:28:50;;;;;;;1.83;0.80;;;17.20;99.90;;;;;;5080908;28;20036;-76
2023/08/03 10:31:55;;;;;;;0.98;0.60;;;17.20;99.90;;;;;;5068052;28;20035;-76
2023/08/03 10:34:41;;;;;;;0.77;0.60;;;17.00;99.90;;;;;;5089893;28;20334;-77
2023/08/03 10:37:33;;;;;;;2.60;0.60;;;16.80;99.90;;;;;;5069782;28;20040;-75
2023/08/03 10:40:22;;;;;;;1.58;0.60;;;16.60;99.90;;;;;;5070530;28;20052;-77
2023/08/03 10:43:10;;;;;;;0.40;0.40;;;16.30;99.90;;;;;;5066366;28;20426;-76
2023/08/03 10:45:57;;;;;;;0.80;0.73;;;16.30;99.90;;;;;;5082149;28;20039;-77
2023/08/03 10:48:43;;;;;;;0.80;0.55;;;16.40;99.90;;;;;;5080094;28;20036;-76
2023/08/03 10:51:30;;;;;;;1.83;0.50;;;16.60;99.90;;;;;;5098817;28;20043;-76
2023/08/03 10:54:28;;;;;;;1.35;0.60;;;16.50;99.90;;;;;;5074224;28;20032;-76
2023/08/03 10:57:16;;;;;;;0.90;0.60;;;16.50;99.90;;;;;;5078265;28;20035;-77
2023/08/03 11:00:04;;;;;;;1.23;0.80;;;16.50;99.90;;;;;;5094888;28;20039;-77
2023/08/03 11:02:50;;;;;;;0.77;0.57;;;16.40;99.90;;;;;;5100734;28;20032;-78
2023/08/03 11:05:37;;;;;;;0.90;0.70;;;16.40;99.90;;;;;;5085762;28;20078;-76
2023/08/03 11:08:23;;;;;;;1.80;0.93;;;16.50;99.90;;;;;;5083641;28;20114;-76
2023/08/03 11:11:11;;;;;;;2.85;0.90;;;16.50;99.90;;;;;;5080537;28;20044;-76
2023/08/03 11:13:58;;;;;;;0.98;0.60;;;16.50;99.90;;;;;;5067454;28;20082;-77
2023/08/03 11:16:43;;;;;;;3.38;0.80;;;16.50;99.90;;;;;;5047550;28;20036;-76
2023/08/03 11:19:36;;;;;;;3.35;0.90;;;16.40;99.90;;;;;;5047360;28;20067;-76
2023/08/03 11:22:23;;;;;;;1.10;0.60;;;16.60;99.90;;;;;;5074648;28;20042;-77
2023/08/03 11:25:09;;;;;;;1.33;0.70;;;16.50;99.90;;;;;;5059364;28;20040;-76
2023/08/03 11:27:55;;;;;;;2.58;0.70;;;16.70;99.90;;;;;;5071036;28;20040;-77
2023/08/03 11:30:45;;;;;;;1.33;0.70;;;16.60;99.90;;;;;;5070295;28;20040;-77
2023/08/03 11:33:34;;;;;;;2.00;0.65;;;16.70;99.90;;;;;;5053306;28;20105;-75
2023/08/03 11:36:22;;;;;;;0.68;0.50;;;16.60;99.90;;;;;;5047027;28;20379;-78
2023/08/03 11:39:09;;;;;;;2.25;0.70;;;16.70;99.90;;;;;;5052298;28;20377;-75
2023/08/03 11:41:55;;;;;;;2.00;0.70;;;16.60;99.90;;;;;;5066901;28;20043;-76
2023/08/03 11:44:45;;;;;;;2.10;0.80;;;16.60;99.90;;;;;;5053314;28;20497;-76
2023/08/03 11:47:48;;;;;;;1.80;1.05;;;16.60;99.90;;;;;;5067757;28;20360;-77
2023/08/03 11:50:33;;;;;;;1.92;1.00;;;16.60;99.90;;;;;;5046756;28;20123;-77
2023/08/03 11:53:24;;;;;;;1.77;0.80;;;16.60;99.90;;;;;;5046706;28;20163;-77
2023/08/03 11:56:12;;;;;;;1.88;0.93;;;16.70;99.90;;;;;;5059868;28;20036;-77
2023/08/03 11:58:58;;;;;;;3.20;1.50;;;16.70;99.90;;;;;;5045484;28;20488;-77
2023/08/03 12:01:48;;;;;;;3.38;1.00;;;16.80;99.90;;;;;;5052160;28;20055;-77
2023/08/03 12:04:34;;;;;;;2.67;0.98;;;16.80;99.90;;;;;;5051871;28;20420;-75
2023/08/03 12:07:20;;;;;;;2.08;1.00;;;16.90;99.90;;;;;;5061675;28;20033;-77
2023/08/03 12:10:11;;;;;;;3.45;2.00;;;16.90;99.90;;;;;;5059424;28;20051;-78
2023/08/03 12:12:57;;;;;;;1.85;1.02;;;17.10;99.90;;;;;;5042112;28;20174;-78
2023/08/03 12:15:44;;;;;;;1.30;0.90;;;17.10;99.90;;;;;;5074020;28;20043;-77
2023/08/03 12:18:30;;;;;;;3.45;1.13;;;17.20;99.90;;;;;;5065716;28;20036;-76
2023/08/03 12:21:18;;;;;;;1.75;1.00;;;17.20;99.90;;;;;;5053724;28;20177;-77
2023/08/03 12:24:05;;;;;;;4.57;1.17;;;17.20;99.90;;;;;;5085988;28;20055;-77
2023/08/03 12:26:51;;;;;;;1.08;0.98;;;17.20;99.90;;;;;;5066396;28;20043;-77
2023/08/03 12:29:38;;;;;;;1.63;1.00;;;17.20;99.90;;;;;;5065203;28;20456;-78
2023/08/03 12:32:24;;;;;;;2.53;1.20;;;17.20;99.90;;;;;;5098653;28;20134;-76
2023/08/03 12:35:10;;;;;;;2.33;1.30;;;17.20;99.90;;;;;;5075808;28;20048;-76
2023/08/03 12:37:57;;;;;;;3.17;1.48;;;17.20;99.90;;;;;;5071955;28;20099;-76
2023/08/03 12:40:43;;;;;;;3.30;1.40;;;17.20;99.90;;;;;;5080639;28;20036;-78
2023/08/03 12:43:29;;;;;;;7.18;1.42;;;17.20;99.90;;;;;;5070895;28;20070;-76
2023/08/03 12:46:16;;;;;;;3.03;1.90;;;17.20;99.90;;;;;;5084604;28;20028;-77
2023/08/03 12:49:04;;;;;;;4.03;2.13;;;17.20;99.90;;;;;;5098622;28;20044;-77
2023/08/03 12:51:49;;;;;;;2.00;1.20;;;17.20;99.90;;;;;;5068028;28;20039;-76
2023/08/03 12:54:35;;;;;;;2.15;1.35;;;17.10;99.90;;;;;;5064385;28;20285;-76
2023/08/03 12:57:21;;;;;;;2.22;1.15;;;17.20;99.90;;;;;;5084890;28;20049;-76
2023/08/03 13:00:08;;;;;;;1.25;1.00;;;17.20;99.90;;;;;;5085097;28;20383;-77
2023/08/03 13:02:54;;;;;;;2.85;1.83;;;17.40;99.90;;;;;;5070117;28;20096;-76
2023/08/03 13:05:40;;;;;;;2.00;1.35;;;17.50;99.90;;;;;;5074318;28;20118;-76
2023/08/03 13:08:26;;;;;;;2.08;1.20;;;17.50;99.90;;;;;;5071475;28;20510;-76
2023/08/03 13:11:12;;;;;;;3.13;1.38;;;17.60;99.90;;;;;;5082945;28;20379;-75
2023/08/03 13:13:58;;;;;;;2.50;1.30;;;17.70;99.90;;;;;;5082645;28;20064;-75
2023/08/03 13:16:44;;;;;;;4.68;1.40;;;17.70;99.90;;;;;;5098347;28;20118;-76
2023/08/03 13:19:33;;;;;;;3.70;1.25;;;17.80;99.90;;;;;;5080902;28;20047;-76
2023/08/03 13:22:19;;;;;;;2.03;1.50;;;17.80;99.90;;;;;;5098022;28;20044;-77
2023/08/03 13:25:05;;;;;;;1.52;1.13;;;17.70;99.90;;;;;;5067217;28;20094;-76
2023/08/03 13:27:51;;;;;;;1.85;0.90;;;17.70;99.90;;;;;;5075103;28;20498;-77
2023/08/03 13:30:37;;;;;;;1.58;1.25;;;17.60;99.90;;;;;;5045592;28;20764;-77
2023/08/03 13:33:24;;;;;;;3.17;1.35;;;17.60;99.90;;;;;;5048808;28;20047;-76
2023/08/03 13:36:11;;;;;;;3.97;1.40;;;17.50;99.90;;;;;;5054670;28;20530;-77
2023/08/03 13:38:57;;;;;;;1.45;1.20;;;17.40;99.90;;;;;;5038638;28;20093;-77
2023/08/03 13:41:43;;;;;;;1.77;1.40;;;17.40;99.90;;;;;;5067119;28;20060;-77
2023/08/03 13:44:29;;;;;;;2.08;1.60;;;17.20;99.90;;;;;;5048020;28;20194;-76
2023/08/03 13:47:15;;;;;;;2.25;1.80;;;17.10;99.90;;;;;;5061538;28;20036;-77
2023/08/03 13:50:01;;;;;;;2.45;1.73;;;17.10;99.90;;;;;;5060719;28;20646;-76
2023/08/03 13:52:47;;;;;;;2.90;1.58;;;17.10;99.90;;;;;;5086557;28;20067;-76
2023/08/03 13:55:32;;;;;;;3.22;1.63;;;17.10;99.90;;;;;;5077366;28;20476;-76
2023/08/03 13:58:18;;;;;;;2.17;1.65;;;17.10;99.90;;;;;;5067323;28;20040;-77
2023/08/03 14:01:04;;;;;;;2.53;1.58;;;17.10;99.90;;;;;;5055401;28;20064;-76
2023/08/03 14:03:54;;;;;;;2.40;1.70;;;17.30;99.90;;;;;;5054256;28;20054;-75
2023/08/03 14:06:40;;;;;;;2.90;1.48;;;17.40;99.90;;;;;;5034504;28;20365;-76
2023/08/03 14:09:26;;;;;;;2.95;1.55;;;17.60;99.90;;;;;;5047172;28;20037;-77
2023/08/03 14:12:12;;;;;;;3.20;1.60;;;17.80;99.90;;;;;;5037896;28;20055;-77
2023/08/03 14:14:58;;;;;;;2.33;1.58;;;18.00;99.90;;;;;;5074648;28;20047;-76
2023/08/03 14:17:48;;;;;;;2.40;1.45;;;18.10;99.90;;;;;;5055526;28;20518;-77
2023/08/03 14:20:34;;;;;;;2.08;1.30;;;18.20;99.90;;;;;;5067179;28;20059;-76
2023/08/03 14:23:20;;;;;;;2.35;1.40;;;18.30;99.90;;;;;;5069449;28;20064;-77
2023/08/03 14:26:06;;;;;;;1.95;1.02;;;18.50;99.90;;;;;;5098636;28;20039;-78
2023/08/03 14:28:52;;;;;;;1.95;1.30;;;18.50;99.90;;;;;;5084011;28;20099;-78
2023/08/03 14:31:38;;;;;;;2.47;1.08;;;18.60;99.90;;;;;;5086349;28;20040;-78